createdAt,value
2023-03-12T00:00:16.632Z,87.30
2023-03-12T00:02:44.561Z,87.70
2023-03-12T00:05:12.671Z,88.20
2023-03-12T00:07:41.951Z,88.40
2023-03-12T00:10:11.158Z,88.80
2023-03-12T00:12:39.051Z,87.70
2023-03-12T00:15:08.139Z,87.50
2023-03-12T00:17:36.099Z,87.10
2023-03-12T00:20:05.135Z,86.70
2023-03-12T00:22:33.054Z,87.80
2023-03-12T00:25:02.306Z,87.50
2023-03-12T00:27:30.286Z,87.20
2023-03-12T00:29:58.174Z,86.50
2023-03-12T00:32:26.167Z,86.60
2023-03-12T00:34:55.157Z,87.30
2023-03-12T00:37:23.656Z,87.60
2023-03-12T00:39:51.820Z,86.90
2023-03-12T00:42:21.363Z,86.50
2023-03-12T00:44:49.263Z,86.40
2023-03-12T00:47:17.160Z,86.80
2023-03-12T00:49:45.073Z,87.80
2023-03-12T00:52:13.117Z,88.90
2023-03-12T00:54:41.249Z,88.90
2023-03-12T00:57:09.182Z,88.90
2023-03-12T00:59:40.482Z,88.20
2023-03-12T01:02:08.777Z,88.00
2023-03-12T01:04:36.883Z,88.40
2023-03-12T01:07:04.959Z,88.50
2023-03-12T01:09:32.832Z,89.20
2023-03-12T01:12:00.788Z,88.60
2023-03-12T01:14:28.694Z,88.50
2023-03-12T01:16:57.899Z,88.90
2023-03-12T01:19:25.864Z,89.50
2023-03-12T01:21:53.735Z,89.20
2023-03-12T01:24:21.623Z,89.40
2023-03-12T01:26:49.460Z,90.10
2023-03-12T01:29:17.411Z,90.30
2023-03-12T01:31:45.357Z,90.30
2023-03-12T01:34:14.692Z,90.50
2023-03-12T01:36:44.449Z,90.60
2023-03-12T01:39:12.400Z,90.60
2023-03-12T01:41:40.402Z,90.20
2023-03-12T01:44:09.227Z,89.90
2023-03-12T01:46:39.359Z,89.90
2023-03-12T01:49:11.024Z,90.20
2023-03-12T01:51:43.607Z,90.50
2023-03-12T01:54:16.883Z,90.50
2023-03-12T01:56:45.343Z,90.50
2023-03-12T01:59:17.938Z,90.20
2023-03-12T02:01:46.335Z,90.30
2023-03-12T02:04:15.757Z,91.00
2023-03-12T02:06:50.213Z,90.60
2023-03-12T02:09:20.214Z,90.50
2023-03-12T02:11:48.257Z,90.40
2023-03-12T02:14:16.614Z,90.40
2023-03-12T02:16:44.957Z,90.20
2023-03-12T02:19:19.767Z,90.10
2023-03-12T02:21:49.041Z,90.40
2023-03-12T02:24:23.171Z,90.70
2023-03-12T02:26:52.802Z,90.40
2023-03-12T02:29:20.959Z,90.40
2023-03-12T02:31:54.394Z,90.40
2023-03-12T02:34:22.805Z,90.20
2023-03-12T02:36:51.051Z,90.40
2023-03-12T02:39:19.634Z,90.50
2023-03-12T02:41:53.531Z,90.50
2023-03-12T02:44:25.029Z,90.40
2023-03-12T02:46:54.865Z,90.60
2023-03-12T02:49:25.547Z,90.70
2023-03-12T02:51:53.824Z,90.50
2023-03-12T02:54:22.725Z,90.40
2023-03-12T02:56:51.887Z,90.10
2023-03-12T02:59:21.815Z,90.10
2023-03-12T03:01:55.682Z,90.10
2023-03-12T03:04:24.416Z,89.80
2023-03-12T03:06:52.634Z,89.40
2023-03-12T03:09:22.184Z,89.50
2023-03-12T03:11:50.708Z,89.40
2023-03-12T03:14:19.351Z,89.90
2023-03-12T03:16:47.588Z,90.10
2023-03-12T03:19:16.845Z,90.00
2023-03-12T03:21:44.878Z,89.60
2023-03-12T03:24:12.799Z,89.80
2023-03-12T03:26:40.753Z,89.70
2023-03-12T03:29:08.645Z,89.10
2023-03-12T03:31:36.605Z,88.80
2023-03-12T03:34:04.591Z,89.60
2023-03-12T03:36:33.848Z,89.90
2023-03-12T03:39:01.732Z,90.20
2023-03-12T03:41:29.690Z,90.30
2023-03-12T03:43:59.242Z,90.60
2023-03-12T03:46:27.637Z,90.20
2023-03-12T03:48:55.524Z,90.10
2023-03-12T03:51:23.471Z,90.20
2023-03-12T03:53:52.712Z,90.40
2023-03-12T03:56:21.054Z,90.60
2023-03-12T03:58:49.012Z,90.30
2023-03-12T04:01:17.163Z,90.40
2023-03-12T04:03:45.157Z,90.50
2023-03-12T04:06:13.608Z,90.30
2023-03-12T04:08:41.760Z,90.30
2023-03-12T04:11:14.782Z,90.10
2023-03-12T04:13:43.003Z,90.20
2023-03-12T04:16:11.300Z,90.00
2023-03-12T04:18:40.163Z,89.40
2023-03-12T04:21:09.755Z,90.00
2023-03-12T04:23:38.531Z,89.80
2023-03-12T04:26:07.565Z,90.00
2023-03-12T04:28:38.831Z,90.10
2023-03-12T04:31:09.136Z,90.20
2023-03-12T04:33:38.794Z,89.80
2023-03-12T04:36:07.588Z,90.00
2023-03-12T04:38:35.532Z,90.00
2023-03-12T04:41:05.783Z,89.80
2023-03-12T04:43:34.066Z,89.70
2023-03-12T04:46:04.416Z,90.00
2023-03-12T04:48:33.103Z,90.10
2023-03-12T04:51:00.970Z,90.20
2023-03-12T04:53:29.095Z,90.20
2023-03-12T04:55:56.973Z,90.40
2023-03-12T04:58:24.952Z,90.30
2023-03-12T05:00:52.969Z,90.40
2023-03-12T05:03:22.197Z,90.50
2023-03-12T05:05:50.036Z,90.70
2023-03-12T05:08:17.907Z,90.40
2023-03-12T05:10:46.243Z,90.40
2023-03-12T05:13:16.018Z,90.50
2023-03-12T05:15:44.084Z,90.70
2023-03-12T05:18:12.114Z,90.50
2023-03-12T05:20:41.481Z,90.80
2023-03-12T05:23:09.525Z,91.00
2023-03-12T05:25:40.381Z,90.90
2023-03-12T05:28:08.377Z,90.60
2023-03-12T05:30:36.311Z,90.10
2023-03-12T05:33:04.349Z,90.00
2023-03-12T05:35:32.428Z,90.30
2023-03-12T05:38:01.697Z,90.60
2023-03-12T05:40:29.621Z,90.60
2023-03-12T05:42:57.612Z,90.60
2023-03-12T05:45:25.456Z,90.50
2023-03-12T05:47:53.328Z,90.70
2023-03-12T05:50:21.458Z,90.60
2023-03-12T05:52:49.310Z,90.50
2023-03-12T05:55:18.805Z,90.50
2023-03-12T05:57:46.690Z,90.40
2023-03-12T06:00:15.874Z,90.30
2023-03-12T06:02:43.941Z,90.30
2023-03-12T06:05:12.164Z,90.30
2023-03-12T06:07:40.251Z,90.20
2023-03-12T06:10:09.334Z,90.40
2023-03-12T06:12:38.552Z,90.90
2023-03-12T06:15:07.192Z,90.90
2023-03-12T06:17:35.096Z,91.00
2023-03-12T06:20:03.008Z,91.10
2023-03-12T06:22:31.251Z,91.20
2023-03-12T06:24:59.249Z,91.30
2023-03-12T06:27:27.310Z,90.30
2023-03-12T06:29:56.540Z,90.40
2023-03-12T06:32:24.443Z,90.00
2023-03-12T06:34:52.321Z,89.90
2023-03-12T06:37:20.203Z,90.00
2023-03-12T06:39:48.081Z,90.20
2023-03-12T06:42:17.689Z,90.30
2023-03-12T06:44:45.586Z,90.00
2023-03-12T06:47:17.437Z,90.40
2023-03-12T06:49:45.551Z,90.40
2023-03-12T06:52:13.397Z,90.30
2023-03-12T06:54:41.364Z,90.00
2023-03-12T06:57:09.286Z,90.00
2023-03-12T06:59:37.137Z,90.00
2023-03-12T07:02:05.212Z,90.10
2023-03-12T07:04:34.437Z,90.00
2023-03-12T07:07:02.260Z,89.40
2023-03-12T07:09:30.183Z,89.70
2023-03-12T07:11:58.045Z,88.80
2023-03-12T07:14:26.675Z,88.50
2023-03-12T07:16:54.516Z,89.30
2023-03-12T07:19:22.438Z,88.20
2023-03-12T07:21:51.673Z,88.30
2023-03-12T07:24:19.690Z,88.10
2023-03-12T07:26:47.573Z,89.10
2023-03-12T07:29:15.437Z,89.10
2023-03-12T07:31:43.353Z,89.10
2023-03-12T07:34:11.478Z,88.40
2023-03-12T07:36:39.499Z,87.60
2023-03-12T07:39:09.198Z,86.70
2023-03-12T07:41:39.014Z,86.00
2023-03-12T07:44:07.195Z,84.50
2023-03-12T07:46:35.161Z,84.80
2023-03-12T07:49:03.018Z,85.10
2023-03-12T07:51:30.877Z,85.00
2023-03-12T07:53:58.785Z,86.00
2023-03-12T07:56:28.093Z,85.30
2023-03-12T07:58:56.229Z,84.60
2023-03-12T08:01:25.475Z,83.30
2023-03-12T08:03:53.436Z,83.00
2023-03-12T08:06:21.840Z,82.00
2023-03-12T08:08:49.745Z,81.60
2023-03-12T08:11:18.156Z,84.60
2023-03-12T08:13:47.350Z,82.70
2023-03-12T08:16:15.735Z,82.10
2023-03-12T08:18:44.451Z,82.00
2023-03-12T08:21:16.371Z,82.70
2023-03-12T08:23:44.432Z,79.50
2023-03-12T08:26:12.542Z,80.00
2023-03-12T08:28:40.455Z,79.50
2023-03-12T08:31:10.484Z,78.20
2023-03-12T08:33:41.222Z,76.20
2023-03-12T08:36:09.840Z,77.80
2023-03-12T08:38:38.005Z,77.80
2023-03-12T08:41:06.024Z,77.90
2023-03-12T08:43:33.907Z,77.90
2023-03-12T08:46:03.985Z,77.40
2023-03-12T08:48:34.284Z,76.70
2023-03-12T08:51:04.304Z,75.90
2023-03-12T08:53:33.605Z,76.70
2023-03-12T08:56:01.944Z,75.60
2023-03-12T08:58:30.170Z,75.10
2023-03-12T09:00:59.092Z,76.70
2023-03-12T09:03:27.706Z,75.60
2023-03-12T09:06:06.545Z,76.30
2023-03-12T09:08:34.479Z,72.20
2023-03-12T09:11:03.179Z,71.70
2023-03-12T09:13:54.290Z,71.90
2023-03-12T09:16:19.241Z,70.50
2023-03-12T09:18:47.140Z,68.10
2023-03-12T09:21:16.473Z,69.20
2023-03-12T09:23:44.324Z,69.30
2023-03-12T09:26:12.715Z,70.00
2023-03-12T09:28:41.037Z,69.60
2023-03-12T09:31:08.958Z,69.80
2023-03-12T09:33:36.990Z,70.00
2023-03-12T09:36:05.625Z,70.40
2023-03-12T09:38:37.991Z,66.10
2023-03-12T09:41:07.077Z,67.60
2023-03-12T09:43:39.555Z,70.80
2023-03-12T09:46:15.153Z,67.50
2023-03-12T09:48:44.727Z,69.60
2023-03-12T09:51:21.174Z,68.20
2023-03-12T09:53:54.439Z,68.20
2023-03-12T09:56:24.028Z,69.70
2023-03-12T09:58:54.630Z,72.30
2023-03-12T10:01:38.432Z,72.30
2023-03-12T10:04:19.436Z,75.60
2023-03-12T10:06:52.008Z,75.60
2023-03-12T10:09:40.704Z,76.10
2023-03-12T10:12:18.140Z,76.70
2023-03-12T10:14:57.689Z,77.70
2023-03-12T10:17:45.755Z,78.00
2023-03-12T10:20:45.298Z,80.00
2023-03-12T10:23:17.791Z,78.50
2023-03-12T10:25:51.738Z,81.10
2023-03-12T10:28:22.972Z,82.80
2023-03-12T10:30:55.495Z,84.70
2023-03-12T10:33:27.905Z,84.60
2023-03-12T10:35:56.533Z,85.40
2023-03-12T10:38:30.368Z,86.40
2023-03-12T10:40:59.579Z,86.10
2023-03-12T10:43:28.127Z,86.50
2023-03-12T10:46:05.692Z,88.70
2023-03-12T10:48:33.665Z,88.90
2023-03-12T10:51:04.469Z,89.50
2023-03-12T10:53:34.421Z,90.10
2023-03-12T10:56:07.484Z,90.70
2023-03-12T10:58:38.291Z,90.90
2023-03-12T11:01:08.204Z,91.50
2023-03-12T11:03:36.119Z,92.40
2023-03-12T11:06:07.772Z,92.70
2023-03-12T11:08:37.447Z,92.90
2023-03-12T11:11:07.022Z,92.90
2023-03-12T11:13:36.786Z,93.30
2023-03-12T11:16:26.851Z,93.30
2023-03-12T11:18:59.964Z,93.30
2023-03-12T11:21:28.368Z,94.00
2023-03-12T11:24:08.067Z,94.00
2023-03-12T11:26:44.464Z,93.90
2023-03-12T11:29:19.429Z,93.90
2023-03-12T11:31:57.416Z,94.10
2023-03-12T11:34:29.372Z,94.40
2023-03-12T11:37:07.329Z,94.40
2023-03-12T11:39:41.941Z,94.50
2023-03-12T11:42:23.760Z,94.70
2023-03-12T11:45:05.700Z,94.80
2023-03-12T11:47:49.060Z,95.30
2023-03-12T11:50:26.878Z,95.10
2023-03-12T11:53:07.425Z,95.40
2023-03-12T11:55:50.984Z,95.40
2023-03-12T11:58:34.521Z,95.40
2023-03-12T12:01:09.274Z,95.50
2023-03-12T12:04:10.903Z,95.60
2023-03-12T12:06:51.289Z,95.50
2023-03-12T12:09:29.764Z,95.10
2023-03-12T12:12:09.341Z,95.30
2023-03-12T12:14:49.715Z,95.50
2023-03-12T12:17:26.517Z,95.50
2023-03-12T12:20:09.209Z,95.70
2023-03-12T12:22:44.327Z,95.60
2023-03-12T12:25:26.925Z,95.70
2023-03-12T12:28:12.634Z,95.70
2023-03-12T12:31:01.077Z,96.10
2023-03-12T12:33:44.896Z,95.80
2023-03-12T12:36:14.685Z,96.10
2023-03-12T12:38:47.467Z,96.10
2023-03-12T12:41:18.696Z,96.20
2023-03-12T12:43:50.244Z,96.20
2023-03-12T12:46:23.719Z,96.20
2023-03-12T12:48:54.429Z,96.10
2023-03-12T12:51:26.354Z,96.60
2023-03-12T12:54:02.098Z,96.70
2023-03-12T12:56:34.697Z,96.70
2023-03-12T12:59:21.439Z,96.70
2023-03-12T13:01:53.527Z,96.70
2023-03-12T13:04:26.889Z,96.70
2023-03-12T13:07:01.059Z,96.70
2023-03-12T13:09:41.768Z,96.70
2023-03-12T13:12:15.911Z,96.80
2023-03-12T13:14:45.594Z,96.70
2023-03-12T13:17:34.090Z,96.80
2023-03-12T13:20:14.388Z,96.80
2023-03-12T13:23:13.389Z,97.10
2023-03-12T13:25:52.299Z,97.10
2023-03-12T13:28:32.781Z,96.90
2023-03-12T13:31:01.188Z,96.90
2023-03-12T13:33:42.360Z,96.90
2023-03-12T13:36:26.684Z,97.00
2023-03-12T13:38:59.552Z,96.90
2023-03-12T13:41:38.712Z,97.00
2023-03-12T13:44:33.079Z,96.80
2023-03-12T13:47:02.796Z,97.00
2023-03-12T13:49:37.683Z,96.80
2023-03-12T13:52:22.147Z,97.00
2023-03-12T13:54:58.742Z,97.10
2023-03-12T13:57:36.789Z,97.00
2023-03-12T14:00:13.101Z,97.30
2023-03-12T14:02:49.294Z,97.40
2023-03-12T14:05:21.409Z,97.50
2023-03-12T14:08:23.027Z,97.50
2023-03-12T14:11:04.311Z,97.50
2023-03-12T14:13:55.285Z,97.60
2023-03-12T14:16:30.561Z,97.60
2023-03-12T14:18:58.778Z,97.70
2023-03-12T14:21:35.318Z,97.60
2023-03-12T14:24:04.944Z,97.60
2023-03-12T14:26:34.744Z,97.70
2023-03-12T14:29:08.385Z,97.80
2023-03-12T14:31:37.596Z,97.60
2023-03-12T14:34:09.377Z,97.70
2023-03-12T14:36:42.553Z,97.70
2023-03-12T14:39:18.911Z,97.70
2023-03-12T14:41:52.540Z,97.80
2023-03-12T14:44:23.788Z,97.80
2023-03-12T14:46:59.912Z,97.90
2023-03-12T14:49:28.803Z,97.90
2023-03-12T14:51:58.828Z,98.00
2023-03-12T14:54:29.578Z,98.00
2023-03-12T14:56:57.540Z,98.00
2023-03-12T14:59:29.547Z,98.00
2023-03-12T15:02:02.141Z,98.00
2023-03-12T15:04:31.372Z,98.10
2023-03-12T15:07:04.523Z,98.10
2023-03-12T15:09:36.020Z,98.20
2023-03-12T15:12:06.927Z,98.20
2023-03-12T15:14:39.450Z,98.20
2023-03-12T15:17:08.666Z,98.20
2023-03-12T15:19:40.173Z,98.30
2023-03-12T15:22:13.569Z,98.30
2023-03-12T15:24:41.705Z,98.30
2023-03-12T15:27:31.775Z,98.40
2023-03-12T15:30:01.974Z,98.50
2023-03-12T15:32:31.760Z,98.50
2023-03-12T15:35:00.105Z,98.50
2023-03-12T15:37:35.304Z,98.60
2023-03-12T15:40:06.488Z,98.60
2023-03-12T15:42:41.189Z,98.60
2023-03-12T15:45:19.482Z,98.60
2023-03-12T15:47:48.187Z,98.60
2023-03-12T15:50:22.577Z,98.60
2023-03-12T15:53:03.187Z,98.60
2023-03-12T15:55:32.691Z,98.60
2023-03-12T15:58:01.019Z,98.60
2023-03-12T16:00:31.521Z,98.60
2023-03-12T16:03:01.027Z,98.60
2023-03-12T16:05:33.157Z,98.60
2023-03-12T16:08:11.354Z,98.60
2023-03-12T16:10:40.567Z,98.70
2023-03-12T16:13:10.474Z,98.70
2023-03-12T16:15:39.298Z,98.80
2023-03-12T16:18:13.678Z,98.80
2023-03-12T16:20:41.703Z,98.80
2023-03-12T16:23:11.217Z,98.90
2023-03-12T16:25:39.643Z,98.90
2023-03-12T16:28:08.275Z,98.90
2023-03-12T16:30:37.973Z,98.80
2023-03-12T16:33:09.078Z,98.70
2023-03-12T16:35:37.429Z,98.80
2023-03-12T16:38:05.514Z,98.80
2023-03-12T16:40:38.089Z,98.80
2023-03-12T16:43:08.006Z,98.90
2023-03-12T16:45:37.851Z,98.80
2023-03-12T16:48:07.496Z,98.80
2023-03-12T16:50:35.438Z,98.90
2023-03-12T16:53:04.694Z,98.90
2023-03-12T16:55:46.265Z,98.80
2023-03-12T16:58:16.715Z,98.80
2023-03-12T17:00:45.293Z,98.80
2023-03-12T17:03:35.459Z,98.80
2023-03-12T17:06:04.254Z,98.80
2023-03-12T17:08:32.175Z,98.70
2023-03-12T17:11:01.517Z,98.80
2023-03-12T17:13:30.375Z,98.80
2023-03-12T17:15:58.784Z,98.80
2023-03-12T17:18:26.753Z,98.80
2023-03-12T17:20:55.676Z,98.70
2023-03-12T17:23:24.593Z,98.80
2023-03-12T17:25:52.492Z,98.70
2023-03-12T17:28:21.676Z,98.80
2023-03-12T17:30:49.561Z,98.80
2023-03-12T17:33:19.609Z,98.80
2023-03-12T17:35:47.657Z,98.90
2023-03-12T17:38:15.643Z,98.90
2023-03-12T17:40:45.024Z,98.80
2023-03-12T17:43:12.939Z,98.80
2023-03-12T17:45:43.056Z,98.90
2023-03-12T17:48:11.283Z,98.90
2023-03-12T17:50:39.150Z,98.90
2023-03-12T17:53:07.028Z,98.90
2023-03-12T17:55:36.008Z,98.90
2023-03-12T17:58:06.050Z,98.80
2023-03-12T18:00:34.724Z,98.70
2023-03-12T18:03:04.306Z,98.80
2023-03-12T18:05:32.269Z,98.80
2023-03-12T18:08:00.217Z,98.80
2023-03-12T18:10:28.175Z,98.80
2023-03-12T18:12:56.023Z,98.90
2023-03-12T18:15:23.890Z,98.90
2023-03-12T18:17:53.189Z,99.00
2023-03-12T18:20:35.788Z,98.90
2023-03-12T18:23:05.443Z,98.90
2023-03-12T18:25:33.420Z,99.30
2023-03-12T18:28:01.282Z,98.90
2023-03-12T18:30:29.273Z,99.00
2023-03-12T18:32:57.287Z,98.90
2023-03-12T18:35:28.860Z,99.00
2023-03-12T18:37:56.952Z,99.00
2023-03-12T18:40:25.007Z,99.00
2023-03-12T18:42:52.905Z,99.00
2023-03-12T18:45:20.782Z,99.00
2023-03-12T18:47:50.841Z,99.00
2023-03-12T18:50:19.060Z,99.00
2023-03-12T18:52:48.383Z,99.00
2023-03-12T18:55:16.319Z,99.00
2023-03-12T18:57:44.628Z,99.00
2023-03-12T19:00:15.037Z,99.00
2023-03-12T19:02:45.416Z,99.00
2023-03-12T19:05:14.434Z,98.90
2023-03-12T19:07:42.742Z,98.90
2023-03-12T19:10:13.548Z,98.90
2023-03-12T19:12:52.186Z,98.90
2023-03-12T19:15:22.317Z,98.90
2023-03-12T19:17:50.496Z,98.90
2023-03-12T19:20:19.058Z,98.90
2023-03-12T19:22:46.996Z,98.90
2023-03-12T19:25:16.248Z,98.90
2023-03-12T19:27:44.202Z,98.90
2023-03-12T19:30:13.755Z,98.90
2023-03-12T19:32:44.082Z,98.90
2023-03-12T19:35:14.802Z,98.90
2023-03-12T19:37:43.134Z,98.90
2023-03-12T19:40:13.276Z,99.10
2023-03-12T19:42:42.633Z,98.90
2023-03-12T19:45:11.669Z,98.90
2023-03-12T19:47:39.575Z,98.90
2023-03-12T19:50:08.489Z,98.90
2023-03-12T19:52:36.391Z,98.90
2023-03-12T19:55:05.684Z,98.90
2023-03-12T19:57:34.323Z,98.90
2023-03-12T20:00:07.259Z,98.90
2023-03-12T20:02:35.278Z,98.90
2023-03-12T20:05:03.502Z,98.90
2023-03-12T20:07:31.502Z,98.90
2023-03-12T20:09:59.421Z,98.90
2023-03-12T20:12:27.288Z,98.90
2023-03-12T20:14:55.226Z,98.90
2023-03-12T20:17:24.428Z,98.90
2023-03-12T20:19:52.300Z,98.90
2023-03-12T20:22:20.192Z,98.90
2023-03-12T20:24:48.045Z,98.90
2023-03-12T20:27:15.878Z,98.90
2023-03-12T20:29:46.099Z,98.90
2023-03-12T20:32:14.142Z,98.90
2023-03-12T20:34:43.442Z,98.90
2023-03-12T20:37:11.439Z,98.90
2023-03-12T20:39:39.298Z,99.00
2023-03-12T20:42:07.258Z,98.90
2023-03-12T20:44:35.194Z,98.90
2023-03-12T20:47:03.055Z,99.00
2023-03-12T20:49:30.893Z,99.00
2023-03-12T20:52:00.138Z,99.00
2023-03-12T20:54:28.425Z,99.10
2023-03-12T20:56:56.359Z,99.10
2023-03-12T20:59:24.178Z,99.20
2023-03-12T21:01:52.000Z,99.20
2023-03-12T21:04:20.021Z,99.10
2023-03-12T21:06:51.634Z,99.20
2023-03-12T21:09:23.449Z,99.10
2023-03-12T21:11:51.520Z,99.10
2023-03-12T21:14:19.498Z,99.10
2023-03-12T21:16:47.450Z,99.10
2023-03-12T21:19:15.380Z,99.20
2023-03-12T21:21:43.276Z,99.20
2023-03-12T21:24:11.152Z,99.20
2023-03-12T21:26:40.321Z,99.20
2023-03-12T21:29:08.157Z,99.20
2023-03-12T21:31:36.522Z,99.20
2023-03-12T21:34:04.419Z,99.20
2023-03-12T21:36:33.049Z,99.10
2023-03-12T21:39:02.045Z,99.10
2023-03-12T21:41:29.939Z,99.10
2023-03-12T21:44:02.230Z,99.10
2023-03-12T21:46:30.662Z,99.20
2023-03-12T21:48:59.575Z,99.20
2023-03-12T21:51:27.827Z,99.20
2023-03-12T21:53:55.729Z,99.20
2023-03-12T21:56:26.366Z,99.10
2023-03-12T21:58:54.216Z,99.10
2023-03-12T22:01:23.460Z,99.10
2023-03-12T22:03:51.447Z,99.10
2023-03-12T22:06:19.385Z,99.10
2023-03-12T22:08:48.453Z,99.10
2023-03-12T22:11:17.201Z,99.10
2023-03-12T22:13:45.510Z,99.10
2023-03-12T22:16:14.805Z,99.10
2023-03-12T22:18:45.668Z,99.10
2023-03-12T22:21:16.113Z,99.10
2023-03-12T22:23:44.077Z,99.10
2023-03-12T22:26:11.918Z,99.10
2023-03-12T22:28:39.806Z,99.10
2023-03-12T22:31:09.522Z,99.10
2023-03-12T22:33:37.948Z,99.20
2023-03-12T22:36:09.669Z,99.20
2023-03-12T22:38:38.744Z,99.20
2023-03-12T22:41:14.232Z,99.20
2023-03-12T22:43:42.083Z,99.10
2023-03-12T22:46:10.027Z,99.00
2023-03-12T22:48:37.930Z,99.00
2023-03-12T22:51:07.633Z,99.00
2023-03-12T22:53:35.462Z,99.00
2023-03-12T22:56:05.785Z,99.10
2023-03-12T22:58:34.449Z,99.20
2023-03-12T23:01:03.005Z,99.20
2023-03-12T23:03:33.442Z,99.20
2023-03-12T23:06:01.794Z,99.20
2023-03-12T23:08:31.679Z,99.30
2023-03-12T23:11:00.905Z,99.20
2023-03-12T23:13:30.624Z,99.20
2023-03-12T23:16:02.408Z,99.10
2023-03-12T23:18:30.322Z,99.00
2023-03-12T23:21:02.950Z,98.90
2023-03-12T23:23:33.934Z,98.90
2023-03-12T23:26:02.953Z,98.90
2023-03-12T23:28:31.272Z,98.90
2023-03-12T23:31:00.823Z,98.90
2023-03-12T23:33:30.794Z,99.00
2023-03-12T23:36:00.361Z,99.00
2023-03-12T23:38:29.981Z,99.00
2023-03-12T23:41:01.960Z,99.20
2023-03-12T23:43:30.175Z,98.90
2023-03-12T23:45:58.872Z,98.80
2023-03-12T23:48:27.439Z,98.90
2023-03-12T23:50:55.543Z,99.00
2023-03-12T23:53:23.412Z,99.00
2023-03-12T23:55:58.125Z,99.00
2023-03-12T23:58:27.404Z,99.00
